Claiborne, Maryland
Current Conditions -  °F | °C
As of 8:50 AM on Monday 24 Nov 2014 (Local Time) from KESN Reporting Station
Scattered Clouds Scattered Clouds  
Wind Chill: 66°   Ceiling: Unl
Heat Index: 66°   Visibility: 10mi
Dew Point: 66°   Wind: 14mph
Humidity: 100%   Direction: 200°SSW
Pressure: 29.75"   Gusts: 25mph
Location:  38.84°N, 76.28°W
Report Text: KESN 241350Z 20012G22KT 10SM SCT010 19/19 A2975
Loading
Personal Weather Stations






























Interactive Weather Map New forecast layout! Learn more

10-Day Weather Forecast

Advertisements
Track Severe Weather on mobile